Página principal
METAR-TAF:

METAR-TAF

Aeroportos :

Teerã, Irão

Aeroporto Internacional de Mehrabad

latitude: 35-41N, longitude: 051-21E, altura: 1204 m

Observação actual do tempo

O boletim foi feito há 24 minutos, às 17:00 UTC
Vento 4 kt de es-sudeste
Temperatura 34°C
Humidade 13%
Pressão 1012 hPa
Visibilidade 10 km ou mais
sem nuvens abaixo de 1500 metros e sem cumulonimbus

METAR: OIII 281700Z 12004KT CAVOK 34/02 Q1012 A2989 NOSIG NOSIG

Hora: 21:54 (17:24 UTC)

Previsão

O boletim foi feito há 6 horas e 14 minutos, às 11:10 UTC
Previsão válida de 28 às 12 UTC a 29 às 18 UTC
Vento 10 kt de sudoeste
Visibilidade 10 km ou mais
sem nuvens abaixo de 1500 metros e sem cumulonimbus
Temporariamente
de 28 às 20 UTC a 29 às 05 UTC
Vento 6 kt de noroeste

TAF: OIII 281110Z 2812/2918 23005MPS CAVOK TEMPO 2820/2905 31003MPS

Observações e previsões do tempo de mais de 4000 aeroportos (mensagens METAR e TAF).

As estações disponíveis são os pontos amarelos e vermelhos sobre o mapa.

Mova o rato sobre o mapa para ver o nome da estação.

Depois clique no ponto para visualizar as observações e previsões meteorológicas.

Para alterar o mapa : clique nos botões verdes com uma cruz preta para aumentar o zoom; no botão verde com uma pitada de zoom; ou nas setas verdes para mapas adjacentes.


METAR-TAF: